createdAt,value
2022-09-24T00:01:28.804Z,9.10
2022-09-24T00:04:07.480Z,9.12
2022-09-24T00:06:38.862Z,9.13
2022-09-24T00:09:05.732Z,9.14
2022-09-24T00:11:33.048Z,9.13
2022-09-24T00:14:00.473Z,9.13
2022-09-24T00:16:31.463Z,9.15
2022-09-24T00:18:58.859Z,9.11
2022-09-24T00:21:28.256Z,9.15
2022-09-24T00:23:57.836Z,9.12
2022-09-24T00:26:43.350Z,9.15
2022-09-24T00:29:11.936Z,9.06
2022-09-24T00:31:38.940Z,9.07
2022-09-24T00:34:06.134Z,9.05
2022-09-24T00:36:33.301Z,9.03
2022-09-24T00:39:00.687Z,9.04
2022-09-24T00:41:30.861Z,9.06
2022-09-24T00:43:58.381Z,9.05
2022-09-24T00:46:42.904Z,9.04
2022-09-24T00:49:15.512Z,9.06
2022-09-24T00:51:45.590Z,9.07
2022-09-24T00:54:18.172Z,9.04
2022-09-24T00:56:47.033Z,9.02
2022-09-24T00:59:17.321Z,9.03
2022-09-24T01:01:48.382Z,9.01
2022-09-24T01:04:17.862Z,8.99
2022-09-24T01:06:45.245Z,9.00
2022-09-24T01:09:12.013Z,8.97
2022-09-24T01:11:51.346Z,8.92
2022-09-24T01:14:39.943Z,8.90
2022-09-24T01:17:12.512Z,8.87
2022-09-24T01:20:11.162Z,8.84
2022-09-24T01:22:40.947Z,8.80
2022-09-24T01:25:11.392Z,8.77
2022-09-24T01:27:56.620Z,8.81
2022-09-24T01:30:25.513Z,8.82
2022-09-24T01:33:01.001Z,8.80
2022-09-24T01:35:35.093Z,8.81
2022-09-24T01:38:06.583Z,8.81
2022-09-24T01:40:34.278Z,8.79
2022-09-24T01:43:05.200Z,8.80
2022-09-24T01:45:33.356Z,8.81
2022-09-24T01:48:01.079Z,8.75
2022-09-24T01:50:31.088Z,8.77
2022-09-24T01:53:06.702Z,8.80
2022-09-24T01:55:38.433Z,8.82
2022-09-24T01:58:10.576Z,8.81
2022-09-24T02:00:45.694Z,8.86
2022-09-24T02:03:20.200Z,8.85
2022-09-24T02:06:33.664Z,8.91
2022-09-24T02:09:00.353Z,8.91
2022-09-24T02:11:28.169Z,8.93
2022-09-24T02:14:13.203Z,8.95
2022-09-24T02:16:46.846Z,8.99
2022-09-24T02:19:17.422Z,8.99
2022-09-24T02:21:46.225Z,9.01
2022-09-24T02:24:29.095Z,8.99
2022-09-24T02:26:56.011Z,8.99
2022-09-24T02:29:23.240Z,9.00
2022-09-24T02:31:54.126Z,8.99
2022-09-24T02:34:27.569Z,8.98
2022-09-24T02:37:07.067Z,8.93
2022-09-24T02:39:34.217Z,8.99
2022-09-24T02:42:01.084Z,9.00
2022-09-24T02:44:28.642Z,8.97
2022-09-24T02:46:55.747Z,8.99
2022-09-24T02:49:22.541Z,8.99
2022-09-24T02:51:49.413Z,9.01
2022-09-24T02:54:16.214Z,8.98
2022-09-24T02:56:42.925Z,8.98
2022-09-24T02:59:10.188Z,8.99
2022-09-24T03:01:37.049Z,8.97
2022-09-24T03:04:04.898Z,8.99
2022-09-24T03:06:32.173Z,8.99
2022-09-24T03:08:58.971Z,8.99
2022-09-24T03:11:25.733Z,8.98
2022-09-24T03:13:52.470Z,8.99
2022-09-24T03:16:19.729Z,9.00
2022-09-24T03:18:47.736Z,9.00
2022-09-24T03:21:19.434Z,8.97
2022-09-24T03:23:46.360Z,8.99
2022-09-24T03:26:13.583Z,8.97
2022-09-24T03:28:40.769Z,8.97
2022-09-24T03:31:08.081Z,8.95
2022-09-24T03:33:46.063Z,8.92
2022-09-24T03:36:25.667Z,8.94
2022-09-24T03:38:56.506Z,8.95
2022-09-24T03:41:28.365Z,8.97
2022-09-24T03:43:55.950Z,8.90
2022-09-24T03:46:25.207Z,8.91
2022-09-24T03:48:52.220Z,8.91
2022-09-24T03:51:20.110Z,8.94
2022-09-24T03:53:47.978Z,8.93
2022-09-24T03:56:15.072Z,8.95
2022-09-24T03:58:42.063Z,8.92
2022-09-24T04:01:10.655Z,9.00
2022-09-24T04:03:38.271Z,9.02
2022-09-24T04:06:06.066Z,9.06
2022-09-24T04:08:33.111Z,9.09
2022-09-24T04:11:00.191Z,9.15
2022-09-24T04:13:27.019Z,9.18
2022-09-24T04:15:55.052Z,9.24
2022-09-24T04:18:22.060Z,9.25
2022-09-24T04:20:48.804Z,9.22
2022-09-24T04:23:15.520Z,9.24
2022-09-24T04:25:42.420Z,9.26
2022-09-24T04:28:10.130Z,9.31
2022-09-24T04:30:38.361Z,9.38
2022-09-24T04:33:06.566Z,9.37
2022-09-24T04:35:36.199Z,9.44
2022-09-24T04:38:04.806Z,9.48
2022-09-24T04:40:32.117Z,9.48
2022-09-24T04:42:59.471Z,9.58
2022-09-24T04:45:26.869Z,9.64
2022-09-24T04:47:57.515Z,9.61
2022-09-24T04:50:29.138Z,9.61
2022-09-24T04:52:56.662Z,9.67
2022-09-24T04:55:24.091Z,9.72
2022-09-24T04:57:51.281Z,9.80
2022-09-24T05:00:20.978Z,9.84
2022-09-24T05:02:55.195Z,9.89
2022-09-24T05:05:22.087Z,9.96
2022-09-24T05:07:49.570Z,10.10
2022-09-24T05:10:16.340Z,10.21
2022-09-24T05:12:43.036Z,10.33
2022-09-24T05:15:10.076Z,10.36
2022-09-24T05:17:40.414Z,10.49
2022-09-24T05:20:09.627Z,10.60
2022-09-24T05:22:37.516Z,10.56
2022-09-24T05:25:04.592Z,10.70
2022-09-24T05:27:31.300Z,10.82
2022-09-24T05:29:58.063Z,10.94
2022-09-24T05:32:25.033Z,11.02
2022-09-24T05:34:52.385Z,11.16
2022-09-24T05:37:19.608Z,11.22
2022-09-24T05:39:46.336Z,11.26
2022-09-24T05:42:16.295Z,11.30
2022-09-24T05:44:45.650Z,11.38
2022-09-24T05:47:16.372Z,11.39
2022-09-24T05:49:43.123Z,11.26
2022-09-24T05:52:10.299Z,11.16
2022-09-24T05:54:37.018Z,11.28
2022-09-24T05:57:03.953Z,11.42
2022-09-24T05:59:30.648Z,11.53
2022-09-24T06:01:57.454Z,11.75
2022-09-24T06:04:24.313Z,12.01
2022-09-24T06:06:52.262Z,12.08
2022-09-24T06:09:19.032Z,12.29
2022-09-24T06:11:46.673Z,12.56
2022-09-24T06:14:14.230Z,12.93
2022-09-24T06:16:40.951Z,13.23
2022-09-24T06:19:07.932Z,13.60
2022-09-24T06:21:34.671Z,13.76
2022-09-24T06:24:01.775Z,13.79
2022-09-24T06:26:29.121Z,13.94
2022-09-24T06:28:58.545Z,14.37
2022-09-24T06:31:28.977Z,14.73
2022-09-24T06:33:55.791Z,15.14
2022-09-24T06:36:22.540Z,15.24
2022-09-24T06:38:52.624Z,15.54
2022-09-24T06:41:19.456Z,15.52
2022-09-24T06:43:46.334Z,15.76
2022-09-24T06:46:14.380Z,16.31
2022-09-24T06:48:42.677Z,16.75
2022-09-24T06:51:09.352Z,17.31
2022-09-24T06:53:36.408Z,17.92
2022-09-24T06:56:03.702Z,17.91
2022-09-24T06:58:30.486Z,17.60
2022-09-24T07:01:00.339Z,17.53
2022-09-24T07:03:31.877Z,18.04
2022-09-24T07:06:06.310Z,18.06
2022-09-24T07:08:36.152Z,17.76
2022-09-24T07:11:02.876Z,17.98
2022-09-24T07:13:29.947Z,18.06
2022-09-24T07:15:56.785Z,18.06
2022-09-24T07:18:23.587Z,18.37
2022-09-24T07:20:56.942Z,18.29
2022-09-24T07:23:24.248Z,17.99
2022-09-24T07:25:56.011Z,17.77
2022-09-24T07:28:23.032Z,17.58
2022-09-24T07:30:57.482Z,17.53
2022-09-24T07:33:24.396Z,17.44
2022-09-24T07:35:51.189Z,17.65
2022-09-24T07:38:18.006Z,17.88
2022-09-24T07:40:44.920Z,17.93
2022-09-24T07:43:14.214Z,18.34
2022-09-24T07:45:42.448Z,18.93
2022-09-24T07:48:10.622Z,19.15
2022-09-24T07:50:42.051Z,19.42
2022-09-24T07:53:12.245Z,19.37
2022-09-24T07:55:41.078Z,19.51
2022-09-24T07:58:11.087Z,19.42
2022-09-24T08:00:38.046Z,19.30
2022-09-24T08:03:05.648Z,19.25
2022-09-24T08:05:33.210Z,19.11
2022-09-24T08:08:00.130Z,19.05
2022-09-24T08:10:28.599Z,18.83
2022-09-24T08:12:57.270Z,18.55
2022-09-24T08:15:24.075Z,18.34
2022-09-24T08:17:51.292Z,18.18
2022-09-24T08:20:18.521Z,17.92
2022-09-24T08:22:45.470Z,17.74
2022-09-24T08:25:12.219Z,17.56
2022-09-24T08:27:39.300Z,17.96
2022-09-24T08:30:07.034Z,18.13
2022-09-24T08:32:34.137Z,18.13
2022-09-24T08:35:00.925Z,18.24
2022-09-24T08:37:28.955Z,18.29
2022-09-24T08:39:56.061Z,18.15
2022-09-24T08:42:44.188Z,18.36
2022-09-24T08:45:30.095Z,18.68
2022-09-24T08:48:09.151Z,18.86
2022-09-24T08:50:39.633Z,18.71
2022-09-24T08:53:54.321Z,18.83
2022-09-24T08:56:32.341Z,18.95
2022-09-24T08:59:03.399Z,18.72
2022-09-24T09:01:44.765Z,18.65
2022-09-24T09:04:17.865Z,18.45
2022-09-24T09:06:50.674Z,18.17
2022-09-24T09:09:22.872Z,18.37
2022-09-24T09:12:03.103Z,19.20
2022-09-24T09:14:45.977Z,19.69
2022-09-24T09:17:26.843Z,19.60
2022-09-24T09:20:01.186Z,19.43
2022-09-24T09:22:47.303Z,19.46
2022-09-24T09:25:24.056Z,19.29
2022-09-24T09:28:00.863Z,19.39
2022-09-24T09:30:37.314Z,19.71
2022-09-24T09:33:13.231Z,20.12
2022-09-24T09:36:03.344Z,20.75
2022-09-24T09:38:37.980Z,21.00
2022-09-24T09:41:29.225Z,21.03
2022-09-24T09:44:20.697Z,21.04
2022-09-24T09:47:06.992Z,21.41
2022-09-24T09:49:36.514Z,21.49
2022-09-24T09:52:10.919Z,21.97
2022-09-24T09:54:39.161Z,22.42
2022-09-24T09:57:06.881Z,22.89
2022-09-24T09:59:35.607Z,22.75
2022-09-24T10:02:02.754Z,22.60
2022-09-24T10:04:39.752Z,23.12
2022-09-24T10:07:17.681Z,23.90
2022-09-24T10:09:46.887Z,24.32
2022-09-24T10:12:22.321Z,24.33
2022-09-24T10:15:16.123Z,23.93
2022-09-24T11:35:36.074Z,15.58
2022-09-24T11:38:10.060Z,15.51
2022-09-24T11:41:13.638Z,15.63
2022-09-24T11:43:55.399Z,15.60
2022-09-24T11:46:38.839Z,15.66
2022-09-24T11:49:28.478Z,15.57
2022-09-24T11:52:26.176Z,15.52
2022-09-24T11:55:01.202Z,15.75
2022-09-24T11:57:39.647Z,16.06
2022-09-24T12:00:13.863Z,16.44
2022-09-24T12:02:47.849Z,17.13
2022-09-24T12:05:31.452Z,18.11
2022-09-24T12:08:05.025Z,19.25
2022-09-24T12:10:43.535Z,20.49
2022-09-24T12:13:20.923Z,21.60
2022-09-24T12:15:54.900Z,22.21
2022-09-24T12:18:27.798Z,22.62
2022-09-24T12:21:01.931Z,22.95
2022-09-24T12:23:39.220Z,23.08
2022-09-24T12:26:07.900Z,23.42
2022-09-24T12:29:39.894Z,23.16
2022-09-24T12:32:40.769Z,21.82
2022-09-24T12:35:23.792Z,20.76
2022-09-24T12:37:58.201Z,19.47
2022-09-24T12:40:49.873Z,18.53
2022-09-24T12:43:44.670Z,17.63
2022-09-24T12:46:44.516Z,17.18
2022-09-24T12:49:52.445Z,16.75
2022-09-24T12:52:32.392Z,16.43
2022-09-24T12:55:02.405Z,16.20
2022-09-24T12:57:42.590Z,16.03
2022-09-24T13:00:37.018Z,16.02
2022-09-24T13:03:05.709Z,16.10
2022-09-24T13:05:45.343Z,16.22
2022-09-24T13:08:17.969Z,16.22
2022-09-24T13:11:05.785Z,16.38
2022-09-24T13:13:40.949Z,16.34
2022-09-24T13:16:16.263Z,16.23
2022-09-24T13:18:44.163Z,16.02
2022-09-24T13:21:22.720Z,15.98
2022-09-24T13:23:50.261Z,15.81
2022-09-24T13:26:29.227Z,15.60
2022-09-24T13:29:24.431Z,15.48
2022-09-24T13:31:57.251Z,15.43
2022-09-24T13:34:27.820Z,15.48
2022-09-24T13:37:02.162Z,15.58
2022-09-24T13:39:46.607Z,15.82
2022-09-24T13:42:13.289Z,15.94
2022-09-24T13:44:43.787Z,15.94
2022-09-24T13:47:19.717Z,15.93
2022-09-24T13:49:50.301Z,15.92
2022-09-24T13:52:30.560Z,15.83
2022-09-24T13:55:02.166Z,15.73
2022-09-24T13:57:29.629Z,15.86
2022-09-24T14:00:13.067Z,15.91
2022-09-24T14:02:40.268Z,16.09
2022-09-24T14:05:17.445Z,16.50
2022-09-24T14:08:13.234Z,16.80
2022-09-24T14:10:40.317Z,16.79
2022-09-24T14:13:12.991Z,16.84
2022-09-24T14:15:49.613Z,16.77
2022-09-24T14:18:16.507Z,16.61
2022-09-24T14:20:45.062Z,16.67
2022-09-24T14:23:22.415Z,16.65
2022-09-24T14:25:51.581Z,16.63
2022-09-24T14:28:20.112Z,16.64
2022-09-24T14:30:53.902Z,16.51
2022-09-24T14:33:25.998Z,16.36
2022-09-24T14:35:55.979Z,16.06
2022-09-24T14:38:26.600Z,15.63
2022-09-24T14:41:06.371Z,15.22
2022-09-24T14:43:49.710Z,14.91
2022-09-24T14:46:19.983Z,14.74
2022-09-24T14:48:47.033Z,14.62
2022-09-24T14:51:30.584Z,14.43
2022-09-24T14:54:19.323Z,14.22
2022-09-24T14:56:46.087Z,14.10
2022-09-24T14:59:17.895Z,13.88
2022-09-24T15:01:44.952Z,13.79
2022-09-24T15:04:20.877Z,13.73
2022-09-24T15:06:48.390Z,13.66
2022-09-24T15:09:31.846Z,13.63
2022-09-24T15:12:09.115Z,13.70
2022-09-24T15:14:36.839Z,13.68
2022-09-24T15:17:20.860Z,13.47
2022-09-24T15:19:47.956Z,13.30
2022-09-24T15:22:14.972Z,13.05
2022-09-24T15:24:41.870Z,12.88
2022-09-24T15:27:27.273Z,12.71
2022-09-24T15:29:59.468Z,12.48
2022-09-24T15:32:28.792Z,12.25
2022-09-24T15:34:56.666Z,12.05
2022-09-24T15:37:27.442Z,11.80
2022-09-24T15:39:58.556Z,11.62
2022-09-24T15:42:27.025Z,11.39
2022-09-24T15:44:54.747Z,11.23
2022-09-24T15:47:21.587Z,11.02
2022-09-24T15:49:48.390Z,10.83
2022-09-24T15:52:24.500Z,10.66
2022-09-24T15:54:52.753Z,10.49
2022-09-24T15:57:19.562Z,10.36
2022-09-24T15:59:46.443Z,10.28
2022-09-24T16:02:29.225Z,10.18
2022-09-24T16:05:00.249Z,10.05
2022-09-24T16:07:30.264Z,9.92
2022-09-24T16:09:57.018Z,9.80
2022-09-24T16:12:28.085Z,9.65
2022-09-24T16:14:58.998Z,9.57
2022-09-24T16:17:26.828Z,9.51
2022-09-24T16:19:53.721Z,9.48
2022-09-24T16:22:20.924Z,9.43
2022-09-24T16:24:48.236Z,9.45
2022-09-24T16:27:15.196Z,9.47
2022-09-24T16:29:42.078Z,9.48
2022-09-24T16:32:08.901Z,9.44
2022-09-24T16:34:35.784Z,9.41
2022-09-24T16:37:02.617Z,9.31
2022-09-24T16:39:29.831Z,9.20
2022-09-24T16:41:56.722Z,9.04
2022-09-24T16:44:23.554Z,8.95
2022-09-24T16:46:51.128Z,8.80
2022-09-24T16:49:18.396Z,8.69
2022-09-24T16:51:45.359Z,8.57
2022-09-24T16:54:13.761Z,8.46
2022-09-24T16:56:40.664Z,8.38
2022-09-24T16:59:07.513Z,8.29
2022-09-24T17:01:34.417Z,8.21
2022-09-24T17:04:01.530Z,8.17
2022-09-24T17:06:31.254Z,8.10
2022-09-24T17:09:16.749Z,8.05
2022-09-24T17:11:45.675Z,8.06
2022-09-24T17:14:12.746Z,8.04
2022-09-24T17:16:40.104Z,8.02
2022-09-24T17:19:08.272Z,8.03
2022-09-24T17:21:36.658Z,8.07
2022-09-24T17:24:04.183Z,8.12
2022-09-24T17:26:30.968Z,8.16
2022-09-24T17:28:57.730Z,8.21
2022-09-24T17:31:26.071Z,8.29
2022-09-24T17:34:04.744Z,8.39
2022-09-24T17:36:33.962Z,8.51
2022-09-24T17:39:01.428Z,8.62
2022-09-24T17:41:29.977Z,8.76
2022-09-24T17:44:00.506Z,8.88
2022-09-24T17:46:29.978Z,8.99
2022-09-24T17:48:58.794Z,9.12
2022-09-24T17:51:28.325Z,9.27
2022-09-24T17:53:55.908Z,9.37
2022-09-24T17:56:25.325Z,9.46
2022-09-24T17:58:54.483Z,9.54
2022-09-24T18:01:25.429Z,9.63
2022-09-24T18:03:54.423Z,9.64
2022-09-24T18:06:21.472Z,9.63
2022-09-24T18:08:48.326Z,9.51
2022-09-24T18:11:23.853Z,9.37
2022-09-24T18:13:55.841Z,9.23
2022-09-24T18:16:25.067Z,9.08
2022-09-24T18:18:52.410Z,8.93
2022-09-24T18:21:22.052Z,8.84
2022-09-24T18:23:49.069Z,8.72
2022-09-24T18:26:23.845Z,8.58
2022-09-24T18:28:53.529Z,8.47
2022-09-24T18:31:23.162Z,8.33
2022-09-24T18:33:51.900Z,8.23
2022-09-24T18:36:21.452Z,8.12
2022-09-24T18:41:29.742Z,7.99
2022-09-24T18:43:59.161Z,7.92
2022-09-24T18:46:28.343Z,7.87
2022-09-24T18:48:56.364Z,7.84
2022-09-24T18:51:26.300Z,7.90
2022-09-24T18:53:56.499Z,7.97
2022-09-24T18:56:24.898Z,8.06
2022-09-24T18:58:56.265Z,8.14
2022-09-24T19:01:23.652Z,8.23
2022-09-24T19:03:50.819Z,8.30
2022-09-24T19:06:17.813Z,8.36
2022-09-24T19:08:44.749Z,8.38
2022-09-24T19:11:14.210Z,8.42
2022-09-24T19:13:42.990Z,8.45
2022-09-24T19:16:12.974Z,8.41
2022-09-24T19:18:40.890Z,8.40
2022-09-24T19:21:10.100Z,8.36
2022-09-24T19:23:42.104Z,8.29
2022-09-24T19:26:10.717Z,8.28
2022-09-24T19:28:41.086Z,8.22
2022-09-24T19:31:16.965Z,8.21
2022-09-24T19:33:46.370Z,8.19
2022-09-24T19:36:13.395Z,8.10
2022-09-24T19:38:41.916Z,8.01
2022-09-24T19:41:10.609Z,7.97
2022-09-24T19:43:37.635Z,7.89
2022-09-24T19:46:07.734Z,7.82
2022-09-24T19:48:39.949Z,7.74
2022-09-24T19:51:12.365Z,7.69
2022-09-24T19:53:39.270Z,7.60
2022-09-24T19:56:07.670Z,7.59
2022-09-24T19:58:35.172Z,7.52
2022-09-24T20:01:03.978Z,7.52
2022-09-24T20:03:38.243Z,7.43
2022-09-24T20:06:20.129Z,7.39
2022-09-24T20:08:47.383Z,7.33
2022-09-24T20:11:20.978Z,7.32
2022-09-24T20:13:53.121Z,7.33
2022-09-24T20:16:22.969Z,7.26
2022-09-24T20:18:51.369Z,7.23
2022-09-24T20:21:19.184Z,7.24
2022-09-24T20:23:47.601Z,7.19
2022-09-24T20:26:35.417Z,7.17
2022-09-24T20:29:03.155Z,7.17
2022-09-24T20:31:30.307Z,7.15
2022-09-24T20:33:57.423Z,7.16
2022-09-24T20:36:25.323Z,7.14
2022-09-24T20:38:52.816Z,7.12
2022-09-24T20:41:22.747Z,7.11
2022-09-24T20:43:50.425Z,7.09
2022-09-24T20:46:18.483Z,7.08
2022-09-24T20:48:45.433Z,7.05
2022-09-24T20:51:14.680Z,7.06
2022-09-24T20:53:41.938Z,7.06
2022-09-24T20:56:09.314Z,7.02
2022-09-24T20:58:37.230Z,7.00
2022-09-24T21:01:04.791Z,7.00
2022-09-24T21:03:46.608Z,6.95
2022-09-24T21:06:15.089Z,6.92
2022-09-24T21:08:43.643Z,6.92
2022-09-24T21:11:13.879Z,6.94
2022-09-24T21:13:44.060Z,6.95
2022-09-24T21:16:11.921Z,6.98
2022-09-24T21:18:41.008Z,6.94
2022-09-24T21:21:23.574Z,6.89
2022-09-24T21:23:52.843Z,6.90
2022-09-24T21:26:24.023Z,6.86
2022-09-24T21:28:53.842Z,6.90
2022-09-24T21:31:24.025Z,6.85
2022-09-24T21:33:54.905Z,6.84
2022-09-24T21:36:24.286Z,6.85
2022-09-24T21:38:54.516Z,6.82
2022-09-24T21:41:32.510Z,6.82
2022-09-24T21:44:00.037Z,6.82
2022-09-24T21:46:28.131Z,6.83
2022-09-24T21:48:55.883Z,6.79
2022-09-24T21:51:23.427Z,6.81
2022-09-24T21:53:56.709Z,6.81
2022-09-24T21:56:24.915Z,6.80
2022-09-24T21:58:53.423Z,6.78
2022-09-24T22:01:46.457Z,6.80
2022-09-24T22:04:13.183Z,6.80
2022-09-24T22:06:39.910Z,6.79
2022-09-24T22:09:07.144Z,6.77
2022-09-24T22:11:34.549Z,6.77
2022-09-24T22:14:02.534Z,6.78
2022-09-24T22:16:31.077Z,6.72
2022-09-24T22:18:58.413Z,6.69
2022-09-24T22:21:25.279Z,6.70
2022-09-24T22:23:52.087Z,6.67
2022-09-24T22:26:18.858Z,6.65
2022-09-24T22:28:46.068Z,6.70
2022-09-24T22:31:15.545Z,6.67
2022-09-24T22:34:01.308Z,6.64
2022-09-24T22:36:30.083Z,6.64
2022-09-24T22:38:59.420Z,6.60
2022-09-24T22:41:30.688Z,6.55
2022-09-24T22:43:58.375Z,6.51
2022-09-24T22:46:27.263Z,6.51
2022-09-24T22:48:55.235Z,6.49
2022-09-24T22:51:23.320Z,6.46
2022-09-24T22:53:50.205Z,6.47
2022-09-24T22:56:19.511Z,6.45
2022-09-24T22:58:55.073Z,6.42
2022-09-24T23:01:27.278Z,6.36
2022-09-24T23:03:55.943Z,6.37
2022-09-24T23:06:23.672Z,6.35
2022-09-24T23:08:52.285Z,6.30
2022-09-24T23:11:25.486Z,6.25
2022-09-24T23:13:58.835Z,6.21
2022-09-24T23:16:31.493Z,6.20
2022-09-24T23:18:59.707Z,6.19
2022-09-24T23:21:28.468Z,6.15
2022-09-24T23:23:57.945Z,6.19
2022-09-24T23:26:25.635Z,6.17
2022-09-24T23:28:54.348Z,6.20
2022-09-24T23:31:25.373Z,6.23
2022-09-24T23:33:54.626Z,6.26
2022-09-24T23:36:21.734Z,6.23
2022-09-24T23:38:48.676Z,6.26
2022-09-24T23:41:15.720Z,6.28
2022-09-24T23:43:42.753Z,6.28
2022-09-24T23:46:10.727Z,6.27
2022-09-24T23:48:38.182Z,6.26
2022-09-24T23:51:05.788Z,6.29
2022-09-24T23:53:34.176Z,6.27
2022-09-24T23:56:02.389Z,6.27
2022-09-24T23:58:29.911Z,6.26
